createdAt,value
2023-04-19T05:03:18.716Z,23.58
2023-04-19T05:04:19.779Z,23.56
2023-04-19T05:05:18.746Z,23.60
2023-04-19T05:06:18.743Z,23.56
2023-04-19T05:07:18.787Z,23.56
2023-04-19T05:08:18.853Z,23.59
2023-04-19T05:09:18.849Z,23.58
2023-04-19T05:10:18.889Z,23.59
2023-04-19T05:11:19.901Z,23.58
2023-04-19T05:12:18.918Z,23.60
2023-04-19T05:13:19.952Z,23.58
2023-04-19T05:14:19.022Z,23.62
2023-04-19T05:15:19.063Z,23.58
2023-04-19T05:16:20.209Z,23.59
2023-04-19T05:17:19.198Z,23.59
2023-04-19T05:18:19.225Z,23.59
2023-04-19T05:19:19.331Z,23.59
2023-04-19T05:20:19.308Z,23.56
2023-04-19T05:21:19.369Z,23.58
2023-04-19T05:22:20.429Z,23.56
2023-04-19T05:23:20.442Z,23.53
2023-04-19T05:24:20.497Z,23.53
2023-04-19T05:25:19.520Z,23.51
2023-04-19T05:26:19.585Z,23.52
2023-04-19T05:27:20.644Z,23.49
2023-04-19T05:28:19.700Z,23.46
2023-04-19T05:29:19.725Z,23.42
2023-04-19T05:30:20.777Z,23.45
2023-04-19T05:31:19.879Z,23.45
2023-04-19T05:32:20.888Z,23.42
2023-04-19T05:33:20.929Z,23.41
2023-04-19T05:34:22.172Z,23.38
2023-04-19T05:35:20.028Z,23.38
2023-04-19T05:36:21.100Z,23.35
2023-04-19T05:37:20.116Z,23.33
2023-04-19T05:38:21.136Z,23.35
2023-04-19T05:39:20.189Z,23.32
2023-04-19T05:40:21.233Z,23.35
2023-04-19T05:41:21.430Z,23.42
2023-04-19T05:42:21.405Z,23.46
2023-04-19T05:43:21.387Z,23.46
2023-04-19T05:44:20.541Z,23.35
2023-04-19T05:45:21.414Z,23.49
2023-04-19T05:46:20.477Z,23.51
2023-04-19T05:47:20.495Z,23.58
2023-04-19T05:48:21.474Z,23.65
2023-04-19T05:49:21.515Z,23.69
2023-04-19T05:50:21.594Z,23.69
2023-04-19T05:51:20.528Z,23.73
2023-04-19T05:52:21.646Z,23.77
2023-04-19T05:53:21.599Z,23.79
2023-04-19T05:54:21.655Z,23.81
2023-04-19T05:55:20.592Z,23.79
2023-04-19T05:56:21.651Z,23.83
2023-04-19T05:57:21.635Z,23.84
2023-04-19T05:58:21.675Z,23.87
2023-04-19T05:59:21.690Z,23.84
2023-04-19T06:00:20.734Z,23.79
2023-04-19T06:01:21.769Z,23.76
2023-04-19T06:02:21.297Z,23.65
2023-04-19T06:03:21.037Z,23.74
2023-04-19T06:04:21.612Z,23.80
2023-04-19T06:05:22.072Z,23.86
2023-04-19T06:06:22.128Z,23.89
2023-04-19T06:07:30.935Z,23.91
2023-04-19T06:08:22.041Z,23.99
2023-04-19T06:09:22.064Z,24.01
2023-04-19T06:10:22.044Z,24.11
2023-04-19T06:11:26.964Z,24.16
2023-04-19T06:12:22.065Z,24.17
2023-04-19T06:13:21.059Z,24.20
2023-04-19T06:14:22.024Z,24.23
2023-04-19T06:15:22.001Z,24.25
2023-04-19T06:16:22.045Z,24.25
2023-04-19T06:17:22.012Z,24.31
2023-04-19T06:18:21.988Z,24.30
2023-04-19T06:19:21.997Z,24.32
2023-04-19T06:20:21.997Z,24.34
2023-04-19T06:21:21.007Z,24.39
2023-04-19T06:22:21.306Z,24.39
2023-04-19T06:23:20.949Z,24.37
2023-04-19T06:24:20.955Z,24.41
2023-04-19T06:25:21.937Z,24.44
2023-04-19T06:26:20.932Z,24.42
2023-04-19T06:27:21.938Z,24.39
2023-04-19T06:28:21.916Z,24.45
2023-04-19T06:29:20.922Z,24.48
2023-04-19T06:30:21.892Z,24.47
2023-04-19T06:31:21.943Z,24.51
2023-04-19T06:32:20.932Z,24.48
2023-04-19T06:33:21.884Z,24.50
2023-04-19T06:34:20.896Z,24.48
2023-04-19T06:35:21.929Z,24.50
2023-04-19T06:36:21.974Z,24.47
2023-04-19T06:37:21.066Z,24.51
2023-04-19T06:38:22.073Z,24.45
2023-04-19T06:39:22.087Z,24.47
2023-04-19T06:40:21.118Z,24.47
2023-04-19T06:41:21.183Z,24.45
2023-04-19T06:42:21.186Z,24.47
2023-04-19T06:43:22.218Z,24.48
2023-04-19T06:44:22.260Z,24.47
2023-04-19T06:45:22.299Z,24.51
2023-04-19T06:46:21.406Z,24.48
2023-04-19T06:47:21.382Z,24.45
2023-04-19T06:48:22.391Z,24.48
2023-04-19T06:49:22.432Z,24.48
2023-04-19T06:50:22.510Z,24.37
2023-04-19T06:51:22.522Z,24.38
2023-04-19T06:52:22.675Z,24.28
2023-04-19T06:53:22.525Z,24.42
2023-04-19T06:54:22.573Z,24.38
2023-04-19T06:55:22.630Z,24.39
2023-04-19T06:56:21.608Z,24.44
2023-04-19T06:57:22.184Z,24.44
2023-04-19T06:58:21.726Z,24.42
2023-04-19T06:59:21.761Z,24.38
2023-04-19T07:00:22.832Z,24.31
2023-04-19T07:01:21.886Z,24.32
2023-04-19T07:02:22.092Z,24.38
2023-04-19T07:03:22.077Z,24.38
2023-04-19T07:04:22.389Z,24.35
2023-04-19T07:05:21.978Z,24.39
2023-04-19T07:06:23.022Z,24.41
2023-04-19T07:07:23.056Z,24.45
2023-04-19T07:08:23.049Z,24.44
2023-04-19T07:09:23.093Z,24.50
2023-04-19T07:10:23.132Z,24.50
2023-04-19T07:11:23.123Z,24.52
2023-04-19T07:12:22.158Z,24.55
2023-04-19T07:13:23.327Z,24.59
2023-04-19T07:14:23.181Z,24.61
2023-04-19T07:15:22.199Z,24.63
2023-04-19T07:16:23.289Z,24.61
2023-04-19T07:17:22.251Z,24.66
2023-04-19T07:18:22.238Z,24.65
2023-04-19T07:19:22.236Z,24.69
2023-04-19T07:20:23.280Z,24.73
2023-04-19T07:21:23.262Z,24.71
2023-04-19T07:22:23.315Z,24.82
2023-04-19T07:23:22.302Z,24.79
2023-04-19T07:24:22.331Z,24.79
2023-04-19T07:25:23.582Z,24.79
2023-04-19T07:26:23.438Z,24.76
2023-04-19T07:27:22.444Z,24.83
2023-04-19T07:28:22.454Z,24.87
2023-04-19T07:29:23.455Z,24.92
2023-04-19T07:30:23.460Z,24.93
2023-04-19T07:31:22.460Z,24.89
2023-04-19T07:32:22.543Z,24.87
2023-04-19T07:33:25.958Z,24.90
2023-04-19T07:34:22.493Z,25.06
2023-04-19T07:35:22.498Z,25.07
2023-04-19T07:36:22.481Z,25.11
2023-04-19T07:37:22.707Z,25.19
2023-04-19T07:38:23.589Z,25.14
2023-04-19T07:39:23.872Z,25.17
2023-04-19T07:40:23.694Z,25.17
2023-04-19T07:41:23.725Z,25.16
2023-04-19T07:42:22.820Z,25.14
2023-04-19T07:43:23.813Z,25.16
2023-04-19T07:44:23.845Z,25.11
2023-04-19T07:45:22.911Z,25.05
2023-04-19T07:46:24.052Z,25.00
2023-04-19T07:47:24.720Z,24.89
2023-04-19T07:48:22.983Z,24.92
2023-04-19T07:49:24.017Z,25.06
2023-04-19T07:50:24.040Z,25.09
2023-04-19T07:51:23.056Z,25.05
2023-04-19T07:52:23.206Z,25.11
2023-04-19T07:53:23.172Z,25.10
2023-04-19T07:54:24.160Z,25.16
2023-04-19T07:55:24.774Z,25.23
2023-04-19T07:56:24.234Z,25.26
2023-04-19T07:57:24.194Z,25.31
2023-04-19T07:58:24.237Z,25.30
2023-04-19T07:59:24.246Z,25.31
2023-04-19T08:00:24.271Z,25.34
2023-04-19T08:01:24.298Z,25.30
2023-04-19T08:02:23.637Z,25.24
2023-04-19T08:03:24.540Z,25.21
2023-04-19T08:04:25.113Z,25.27
2023-04-19T08:05:24.476Z,25.24
2023-04-19T08:06:23.385Z,25.30
2023-04-19T08:07:24.412Z,25.30
2023-04-19T08:08:23.396Z,25.34
2023-04-19T08:09:23.448Z,25.34
2023-04-19T08:10:24.435Z,25.42
2023-04-19T08:11:24.506Z,25.37
2023-04-19T08:12:35.134Z,25.42
2023-04-19T08:13:24.496Z,25.45
2023-04-19T08:14:37.246Z,25.44
2023-04-19T08:16:05.110Z,25.49
2023-04-19T08:17:27.980Z,25.49
2023-04-19T08:18:24.590Z,25.51
2023-04-19T08:19:24.452Z,25.51
2023-04-19T08:20:24.505Z,25.55
2023-04-19T08:21:31.285Z,25.55
2023-04-19T08:22:24.455Z,25.57
2023-04-19T08:23:27.712Z,25.60
2023-04-19T08:24:24.437Z,25.58
2023-04-19T08:25:24.427Z,25.62
2023-04-19T08:26:24.423Z,25.62
2023-04-19T08:27:24.424Z,25.62
2023-04-19T08:28:24.450Z,25.64
2023-04-19T08:29:24.410Z,25.64
2023-04-19T08:30:24.416Z,25.61
2023-04-19T08:31:24.507Z,25.65
2023-04-19T08:32:23.401Z,25.69
2023-04-19T08:33:24.423Z,25.69
2023-04-19T08:34:23.361Z,25.69
2023-04-19T08:35:24.449Z,25.71
2023-04-19T08:36:35.401Z,25.68
2023-04-19T08:37:24.547Z,25.67
2023-04-19T08:38:23.497Z,25.65
2023-04-19T08:39:32.374Z,25.72
2023-04-19T08:40:24.635Z,25.72
2023-04-19T08:41:23.455Z,25.75
2023-04-19T08:42:35.821Z,25.72
2023-04-19T08:43:24.722Z,25.68
2023-04-19T08:44:34.995Z,25.44
2023-04-19T08:45:27.896Z,25.10
2023-04-19T08:46:23.443Z,24.83
2023-04-19T08:47:31.235Z,24.51
2023-04-19T08:48:24.405Z,24.16
2023-04-19T08:49:24.378Z,24.16
2023-04-19T08:50:32.597Z,24.18
2023-04-19T08:51:24.359Z,24.01
2023-04-19T08:52:24.362Z,23.77
2023-04-19T08:53:25.922Z,23.60
2023-04-19T08:56:10.624Z,23.65
2023-04-19T08:56:58.182Z,23.65
2023-04-19T08:57:57.402Z,23.59
2023-04-19T08:59:11.489Z,23.45
2023-04-19T08:59:58.193Z,23.28
2023-04-19T09:00:57.147Z,22.93
2023-04-19T09:01:58.979Z,22.90
2023-04-19T09:02:58.340Z,22.84
2023-04-19T09:04:07.404Z,22.87
2023-04-19T09:04:59.002Z,22.78
2023-04-19T09:05:58.444Z,22.70
2023-04-19T09:06:57.100Z,22.67
2023-04-19T09:07:57.113Z,22.67
2023-04-19T09:08:58.113Z,22.71
2023-04-19T09:10:02.871Z,22.71
2023-04-19T09:10:58.090Z,22.77
2023-04-19T09:11:58.097Z,22.77
2023-04-19T09:12:58.087Z,22.74
2023-04-19T09:13:57.199Z,22.74
2023-04-19T09:15:01.632Z,22.64
2023-04-19T09:15:58.270Z,22.56
2023-04-19T09:16:58.261Z,22.55
2023-04-19T09:17:58.697Z,22.53
2023-04-19T09:19:05.436Z,22.45
2023-04-19T09:19:58.333Z,22.40
2023-04-19T09:20:58.314Z,22.28
2023-04-19T09:21:58.298Z,22.22
2023-04-19T09:22:58.301Z,22.08
2023-04-19T09:23:58.294Z,22.11
2023-04-19T09:26:58.313Z,22.05
2023-04-19T09:27:58.263Z,22.01
2023-04-19T09:28:58.267Z,22.07
2023-04-19T09:29:58.272Z,22.13
2023-04-19T09:31:05.786Z,22.23
2023-04-19T09:31:58.334Z,22.18
2023-04-19T09:32:59.334Z,22.18
2023-04-19T09:33:58.282Z,22.16
2023-04-19T09:34:58.320Z,22.19
2023-04-19T09:35:58.226Z,22.23
2023-04-19T09:37:09.047Z,22.18
2023-04-19T09:38:05.434Z,22.13
2023-04-19T09:38:58.247Z,22.07
2023-04-19T09:39:58.217Z,22.01
2023-04-19T09:40:58.215Z,22.04
2023-04-19T09:41:57.214Z,22.05
2023-04-19T09:43:08.747Z,22.04
2023-04-19T09:44:13.047Z,21.91
2023-04-19T09:45:57.172Z,21.77
2023-04-19T09:46:57.186Z,22.04
2023-04-19T09:47:58.189Z,22.19
2023-04-19T09:48:58.718Z,22.08
2023-04-19T09:49:58.544Z,22.15
2023-04-19T09:51:02.427Z,22.28
2023-04-19T09:51:58.167Z,22.46
2023-04-19T09:52:58.100Z,22.55
2023-04-19T09:53:58.094Z,22.67
2023-04-19T09:54:58.105Z,22.62
2023-04-19T09:56:01.210Z,22.66
2023-04-19T09:57:00.177Z,22.77
2023-04-19T09:57:58.074Z,22.97
2023-04-19T09:59:04.903Z,23.10
2023-04-19T09:59:58.123Z,23.22
2023-04-19T10:01:10.764Z,23.33
2023-04-19T10:01:58.145Z,23.49
2023-04-19T10:02:57.166Z,23.63
2023-04-19T10:05:11.198Z,23.84
2023-04-19T10:05:58.194Z,23.91
2023-04-19T10:07:19.461Z,23.99
2023-04-19T10:07:59.962Z,24.01
2023-04-19T10:08:58.026Z,23.97
2023-04-19T10:10:02.247Z,24.11
2023-04-19T10:10:59.185Z,24.17
2023-04-19T10:12:03.723Z,24.23
2023-04-19T10:13:15.296Z,24.28
2023-04-19T10:13:57.963Z,24.37
2023-04-19T10:14:57.952Z,24.44
2023-04-19T10:16:01.773Z,24.51
2023-04-19T10:16:57.978Z,24.54
2023-04-19T10:17:58.017Z,24.61
2023-04-19T10:18:57.956Z,24.66
2023-04-19T10:19:56.960Z,24.72
2023-04-19T10:20:57.922Z,24.81
2023-04-19T10:21:58.042Z,24.78
2023-04-19T10:22:57.911Z,24.82
2023-04-19T10:23:56.933Z,24.85
2023-04-19T10:24:57.899Z,24.90
2023-04-19T10:25:56.915Z,24.93
2023-04-19T10:26:56.916Z,24.89
2023-04-19T10:27:56.901Z,24.85
2023-04-19T10:28:56.931Z,24.87
2023-04-19T10:29:56.867Z,24.90
2023-04-19T10:30:56.886Z,24.93
2023-04-19T10:31:57.992Z,25.02
2023-04-19T10:32:58.010Z,24.92
2023-04-19T10:33:58.125Z,24.96
2023-04-19T10:34:57.085Z,24.99
2023-04-19T10:35:58.147Z,24.96
2023-04-19T10:36:57.194Z,25.03
2023-04-19T10:37:58.371Z,25.06
2023-04-19T10:38:57.294Z,25.11
2023-04-19T10:39:57.304Z,25.13
2023-04-19T10:40:58.354Z,25.20
2023-04-19T10:41:58.416Z,25.17
2023-04-19T10:42:57.455Z,25.21
2023-04-19T10:43:57.937Z,25.27
2023-04-19T10:44:57.559Z,25.21
2023-04-19T10:45:58.599Z,25.09
2023-04-19T10:46:57.631Z,25.17
2023-04-19T10:47:58.738Z,25.21
2023-04-19T10:48:58.659Z,25.34
2023-04-19T10:49:58.684Z,25.44
2023-04-19T10:50:57.688Z,25.47
2023-04-19T10:51:58.719Z,25.54
2023-04-19T10:52:57.773Z,25.58
2023-04-19T10:53:59.036Z,25.57
2023-04-19T10:54:58.870Z,25.60
2023-04-19T10:55:57.905Z,25.60
2023-04-19T10:56:58.959Z,25.57
2023-04-19T10:57:58.008Z,25.58
2023-04-19T10:58:58.044Z,25.51
2023-04-19T10:59:59.088Z,25.54
2023-04-19T11:00:58.204Z,25.52
2023-04-19T11:01:59.322Z,25.48
2023-04-19T11:02:59.393Z,25.49
2023-04-19T11:03:58.359Z,25.57
2023-04-19T11:04:59.253Z,25.62
2023-04-19T11:05:59.353Z,25.65
2023-04-19T11:06:59.321Z,25.74
2023-04-19T11:07:59.338Z,25.78
2023-04-19T11:08:59.401Z,25.82
2023-04-19T11:09:59.432Z,25.85
2023-04-19T11:10:58.411Z,25.93
2023-04-19T11:11:58.433Z,25.93
2023-04-19T11:12:59.492Z,25.95
2023-04-19T11:13:58.546Z,25.97
2023-04-19T11:14:58.566Z,25.99
2023-04-19T11:15:59.606Z,26.00
2023-04-19T11:16:59.621Z,26.00
2023-04-19T11:18:11.957Z,26.03
2023-04-19T11:18:59.598Z,26.00
2023-04-19T11:19:58.583Z,26.02
2023-04-19T11:20:58.589Z,26.00
2023-04-19T11:21:59.591Z,25.95
2023-04-19T11:22:59.725Z,25.91
2023-04-19T11:23:59.564Z,25.91
2023-04-19T11:24:59.544Z,25.93
2023-04-19T11:26:00.490Z,25.92
2023-04-19T11:26:59.550Z,25.91
2023-04-19T11:27:59.533Z,25.95
2023-04-19T11:28:59.539Z,25.95
2023-04-19T11:29:59.538Z,25.99
2023-04-19T11:30:58.557Z,25.97
2023-04-19T11:31:59.505Z,25.97
2023-04-19T11:32:58.585Z,26.00
2023-04-19T11:33:59.505Z,25.99
2023-04-19T11:34:59.510Z,25.95
2023-04-19T11:35:58.496Z,26.00
2023-04-19T11:36:59.504Z,26.03
2023-04-19T11:37:58.485Z,26.05
2023-04-19T11:38:59.465Z,26.02
2023-04-19T11:39:58.530Z,26.00
2023-04-19T11:40:59.554Z,25.93
2023-04-19T11:41:59.593Z,25.95
2023-04-19T11:42:58.633Z,25.89
2023-04-19T11:43:59.665Z,25.84
2023-04-19T11:44:59.725Z,25.85
2023-04-19T11:45:58.774Z,25.75
2023-04-19T11:46:59.048Z,25.74
2023-04-19T11:47:59.910Z,25.74
2023-04-19T11:48:58.996Z,25.65
2023-04-19T11:49:59.002Z,25.67
2023-04-19T11:51:00.042Z,25.65
2023-04-19T11:52:00.104Z,25.60
2023-04-19T11:53:00.165Z,25.58
2023-04-19T11:54:00.205Z,25.54
2023-04-19T11:54:59.156Z,25.57
2023-04-19T11:55:59.187Z,25.55
2023-04-19T11:56:59.224Z,25.55
2023-04-19T11:58:00.275Z,25.55
2023-04-19T11:58:59.267Z,25.58
2023-04-19T12:00:00.264Z,25.57
2023-04-19T12:01:00.276Z,25.58
2023-04-19T12:01:59.319Z,25.62
2023-04-19T12:02:59.427Z,25.64
2023-04-19T12:03:59.484Z,25.52
2023-04-19T12:04:59.555Z,25.72
2023-04-19T12:05:59.655Z,25.76
2023-04-19T12:06:59.420Z,25.78
2023-04-19T12:08:00.439Z,25.81
2023-04-19T12:09:00.461Z,25.81
2023-04-19T12:10:00.464Z,25.84
2023-04-19T12:10:59.475Z,25.86
2023-04-19T12:12:00.561Z,25.86
2023-04-19T12:13:00.557Z,25.84
2023-04-19T12:13:59.652Z,25.85
2023-04-19T12:15:00.616Z,25.88
2023-04-19T12:16:00.600Z,25.88
2023-04-19T12:16:59.714Z,25.79
2023-04-19T12:18:00.649Z,25.76
2023-04-19T12:19:00.641Z,25.71
2023-04-19T12:20:00.650Z,25.64
2023-04-19T12:21:01.350Z,25.67
2023-04-19T12:22:00.740Z,25.68
2023-04-19T12:23:00.775Z,25.69
2023-04-19T12:23:59.860Z,25.64
2023-04-19T12:25:00.881Z,25.61
2023-04-19T12:25:59.923Z,25.58
2023-04-19T12:27:00.990Z,25.54
2023-04-19T12:28:00.005Z,25.51
2023-04-19T12:29:00.044Z,25.51
2023-04-19T12:30:01.219Z,25.49
2023-04-19T12:31:00.130Z,25.47
2023-04-19T12:32:01.172Z,25.44
2023-04-19T12:33:01.206Z,25.44
2023-04-19T12:34:00.278Z,25.45
2023-04-19T12:35:01.305Z,25.42
2023-04-19T12:36:00.334Z,25.38
2023-04-19T12:37:00.382Z,25.38
2023-04-19T12:38:01.415Z,25.40
2023-04-19T12:39:01.492Z,25.40
2023-04-19T12:40:00.522Z,25.42
2023-04-19T12:41:01.544Z,25.40
2023-04-19T12:42:01.574Z,25.44
2023-04-19T12:43:01.582Z,25.42
2023-04-19T12:44:00.655Z,25.44
2023-04-19T12:45:00.625Z,25.45
2023-04-19T12:46:00.771Z,25.47
2023-04-19T12:47:01.683Z,25.48
2023-04-19T12:48:01.715Z,25.51
2023-04-19T12:49:00.760Z,25.49
2023-04-19T12:50:01.766Z,25.48
2023-04-19T12:51:01.810Z,25.45
2023-04-19T12:52:00.766Z,25.48
2023-04-19T12:53:00.758Z,25.51
2023-04-19T12:54:01.825Z,25.52
2023-04-19T12:55:01.784Z,25.48
2023-04-19T12:56:01.826Z,25.54
2023-04-19T12:57:02.907Z,25.54
2023-04-19T12:58:01.998Z,25.55
2023-04-19T12:59:01.002Z,25.52
2023-04-19T13:00:01.020Z,25.51
2023-04-19T13:01:01.109Z,25.54
2023-04-19T13:02:02.334Z,25.57
2023-04-19T13:03:02.223Z,25.51
2023-04-19T13:04:01.480Z,25.52
2023-04-19T13:05:01.200Z,25.51
2023-04-19T13:06:02.141Z,25.52
2023-04-19T13:07:02.183Z,25.51
2023-04-19T13:08:02.196Z,25.48
2023-04-19T13:09:01.716Z,25.47
2023-04-19T13:10:01.233Z,25.44
2023-04-19T13:11:02.232Z,25.42
2023-04-19T13:12:02.268Z,25.41
2023-04-19T13:13:02.273Z,25.42
2023-04-19T13:14:02.321Z,25.40
2023-04-19T13:15:03.660Z,25.37
2023-04-19T13:16:02.360Z,25.34
2023-04-19T13:17:01.335Z,25.28
2023-04-19T13:18:01.384Z,25.28
2023-04-19T13:19:02.291Z,25.28
2023-04-19T13:20:02.303Z,25.26
2023-04-19T13:21:02.279Z,25.24
2023-04-19T13:22:02.285Z,25.20
2023-04-19T13:23:02.290Z,25.20
2023-04-19T13:24:02.264Z,25.14
2023-04-19T13:25:02.270Z,25.16
2023-04-19T13:26:02.303Z,25.11
2023-04-19T13:27:02.356Z,25.11
2023-04-19T13:28:01.262Z,25.09
2023-04-19T13:29:01.234Z,25.07
2023-04-19T13:30:02.246Z,25.03
2023-04-19T13:31:02.328Z,25.02
2023-04-19T13:32:02.219Z,25.05
2023-04-19T13:33:01.306Z,25.00
2023-04-19T13:34:02.236Z,24.99
2023-04-19T13:35:02.241Z,24.97
2023-04-19T13:36:02.205Z,24.97
2023-04-19T13:37:02.196Z,24.97
2023-04-19T13:38:02.199Z,24.96
2023-04-19T13:39:02.248Z,24.94
2023-04-19T13:40:17.478Z,24.94
2023-04-19T13:41:02.175Z,24.90
2023-04-19T13:42:01.154Z,24.96
2023-04-19T13:43:02.188Z,24.90
2023-04-19T13:44:01.150Z,24.93
2023-04-19T13:45:02.173Z,24.89
2023-04-19T13:46:02.149Z,24.86
2023-04-19T13:47:02.178Z,24.85
2023-04-19T13:48:02.238Z,24.82
2023-04-19T13:49:02.111Z,24.81
2023-04-19T13:50:02.197Z,24.83
2023-04-19T13:51:02.104Z,24.81
2023-04-19T13:52:02.132Z,24.79
2023-04-19T13:53:02.100Z,24.78
2023-04-19T13:54:01.082Z,24.78
2023-04-19T13:55:02.101Z,24.76
2023-04-19T13:56:02.121Z,24.75
2023-04-19T13:57:02.069Z,24.73
2023-04-19T13:58:02.118Z,24.73
2023-04-19T13:59:01.063Z,24.73
2023-04-19T14:00:01.063Z,24.75
2023-04-19T14:01:02.125Z,24.72
2023-04-19T14:02:01.087Z,24.72
2023-04-19T14:03:02.271Z,24.68
2023-04-19T14:04:02.494Z,24.72
2023-04-19T14:05:02.049Z,24.69
2023-04-19T14:06:02.029Z,24.69
2023-04-19T14:07:01.995Z,24.68
2023-04-19T14:08:02.131Z,24.68
2023-04-19T14:09:00.995Z,24.69
2023-04-19T14:10:02.031Z,24.66
2023-04-19T14:11:01.974Z,24.68
2023-04-19T14:12:01.966Z,24.65
2023-04-19T14:13:00.955Z,24.62
2023-04-19T14:14:01.957Z,24.61
2023-04-19T14:15:01.962Z,24.58
2023-04-19T14:16:00.958Z,24.61
2023-04-19T14:17:02.002Z,24.61
2023-04-19T14:18:01.998Z,24.61
2023-04-19T14:19:01.924Z,24.61
2023-04-19T14:20:00.926Z,24.58
2023-04-19T14:21:00.906Z,24.56
2023-04-19T14:22:01.933Z,24.56
2023-04-19T14:23:01.922Z,24.55
2023-04-19T14:24:00.911Z,24.56
2023-04-19T14:25:00.947Z,24.56
2023-04-19T14:26:02.032Z,24.58
2023-04-19T14:28:00.955Z,24.58
2023-04-19T14:29:01.965Z,24.59
2023-04-19T14:30:01.940Z,24.59
2023-04-19T14:31:02.008Z,24.61
2023-04-19T14:32:13.499Z,24.63
2023-04-19T14:33:02.005Z,24.61
2023-04-19T14:34:01.950Z,24.58
2023-04-19T14:35:00.930Z,24.59
2023-04-19T14:36:01.919Z,24.58
2023-04-19T14:37:01.902Z,24.58
2023-04-19T14:38:01.960Z,24.58
2023-04-19T14:39:01.886Z,24.55
2023-04-19T14:40:01.901Z,24.55
2023-04-19T14:41:01.903Z,24.54
2023-04-19T14:42:01.868Z,24.55
2023-04-19T14:43:01.912Z,24.51
2023-04-19T14:44:00.862Z,24.52
2023-04-19T14:45:00.858Z,24.50
2023-04-19T14:46:00.938Z,24.51
2023-04-19T14:47:01.827Z,24.50
2023-04-19T14:48:00.926Z,24.51
2023-04-19T14:49:00.820Z,24.48
2023-04-19T14:50:00.830Z,24.50
2023-04-19T14:51:00.792Z,24.51
2023-04-19T14:52:00.789Z,24.47
2023-04-19T14:53:00.797Z,24.48
2023-04-19T14:54:00.798Z,24.45
2023-04-19T14:55:01.773Z,24.47
2023-04-19T14:56:01.761Z,24.45
2023-04-19T14:57:00.801Z,24.45
2023-04-19T14:58:01.766Z,24.44
2023-04-19T14:59:00.749Z,24.44
2023-04-19T15:00:01.855Z,24.44
2023-04-19T15:01:01.779Z,24.41
2023-04-19T15:02:00.766Z,24.42
2023-04-19T15:03:00.817Z,24.41
2023-04-19T15:04:02.035Z,24.38
2023-04-19T15:05:02.117Z,24.37
2023-04-19T15:06:00.699Z,24.37
2023-04-19T15:07:01.703Z,24.34
2023-04-19T15:08:01.709Z,24.35
2023-04-19T15:09:00.703Z,24.35
2023-04-19T15:10:00.747Z,24.34
2023-04-19T15:11:01.673Z,24.31
2023-04-19T15:12:00.687Z,24.30
2023-04-19T15:13:00.665Z,24.28
2023-04-19T15:14:00.661Z,24.30
2023-04-19T15:15:00.654Z,24.28
2023-04-19T15:16:03.093Z,24.25
2023-04-19T15:17:01.658Z,24.23
2023-04-19T15:18:01.675Z,24.24
2023-04-19T15:19:01.626Z,24.20
2023-04-19T15:20:00.738Z,24.18
2023-04-19T15:21:01.613Z,24.18
2023-04-19T15:22:00.611Z,24.18
2023-04-19T15:23:01.622Z,24.18
2023-04-19T15:24:00.596Z,24.17
2023-04-19T15:25:01.610Z,24.16
2023-04-19T15:26:01.661Z,24.11
2023-04-19T15:27:00.593Z,24.14
2023-04-19T15:28:00.595Z,24.14
2023-04-19T15:29:01.579Z,24.11
2023-04-19T15:30:01.632Z,24.10
